Preview of NWS' New Version of Forecast
This preview is not operational and should not be used for support decisions.

Terminal Aerodrome Forecast (TAF)

Issued by National Weather Service (NWS)

                            
573 
FTUS42 KKEY 261502 AAA
TAFEYW
TAF AMD
KEYW 261502Z 2615/2712 14013KT P6SM VCSH SCT015 SCT060 OVC070
     FM261800 13015G24KT P6SM -RA SCT015 BKN035
      TEMPO 2618/2621 15020G30KT 1SM SHRA BR BKN012 OVC040
     FM262100 14020G29KT 5SM -RA VCSH SCT015 BKN040 OVC060
     FM270100 15025G34KT 5SM -RA VCTS OVC015CB
     FM270600 16030G39KT 5SM -RA VCTS OVC020CB=